createdAt,value
2019-02-02T00:00:02.771Z,4.06
2019-02-02T00:01:02.703Z,4.06
2019-02-02T00:02:02.699Z,4.00
2019-02-02T00:03:02.684Z,3.98
2019-02-02T00:04:02.721Z,4.01
2019-02-02T00:05:02.685Z,4.03
2019-02-02T00:06:02.714Z,4.01
2019-02-02T00:07:02.641Z,4.04
2019-02-02T00:08:02.635Z,4.07
2019-02-02T00:09:02.641Z,4.06
2019-02-02T00:10:02.623Z,4.03
2019-02-02T00:11:02.638Z,4.01
2019-02-02T00:12:02.648Z,4.15
2019-02-02T00:13:02.610Z,4.15
2019-02-02T00:14:02.571Z,4.15
2019-02-02T00:15:02.566Z,4.21
2019-02-02T00:16:02.556Z,4.25
2019-02-02T00:17:02.534Z,4.28
2019-02-02T00:18:02.528Z,4.16
2019-02-02T00:19:02.517Z,4.15
2019-02-02T00:20:02.508Z,4.18
2019-02-02T00:21:02.495Z,4.15
2019-02-02T00:22:02.502Z,4.19
2019-02-02T00:23:02.467Z,4.07
2019-02-02T00:24:02.467Z,4.07
2019-02-02T00:25:02.445Z,4.18
2019-02-02T00:26:02.435Z,4.21
2019-02-02T00:27:02.440Z,4.28
2019-02-02T00:28:02.425Z,4.33
2019-02-02T00:29:02.406Z,4.37
2019-02-02T00:30:02.409Z,4.39
2019-02-02T00:31:02.386Z,4.34
2019-02-02T00:32:02.379Z,4.29
2019-02-02T00:33:02.374Z,4.25
2019-02-02T00:34:02.359Z,4.21
2019-02-02T00:35:02.345Z,4.26
2019-02-02T00:36:02.337Z,4.29
2019-02-02T00:37:02.322Z,4.29
2019-02-02T00:38:02.308Z,4.29
2019-02-02T00:39:02.307Z,4.26
2019-02-02T00:40:02.315Z,4.18
2019-02-02T00:41:02.288Z,4.07
2019-02-02T00:42:02.273Z,4.01
2019-02-02T00:43:02.257Z,4.06
2019-02-02T00:44:02.249Z,4.08
2019-02-02T00:45:02.250Z,4.04
2019-02-02T00:46:02.226Z,4.08
2019-02-02T00:47:02.227Z,4.04
2019-02-02T00:48:02.206Z,4.01
2019-02-02T00:49:02.197Z,3.97
2019-02-02T00:50:02.188Z,3.88
2019-02-02T00:51:02.177Z,3.97
2019-02-02T00:52:02.161Z,3.92
2019-02-02T00:53:02.194Z,3.88
2019-02-02T00:54:02.143Z,4.01
2019-02-02T00:55:02.128Z,4.07
2019-02-02T00:56:02.127Z,3.94
2019-02-02T00:57:02.114Z,4.00
2019-02-02T00:58:02.106Z,3.96
2019-02-02T00:59:02.099Z,4.00
2019-02-02T01:00:02.086Z,3.98
2019-02-02T01:01:02.070Z,3.96
2019-02-02T01:02:02.062Z,4.03
2019-02-02T01:03:02.055Z,4.10
2019-02-02T01:04:02.043Z,4.19
2019-02-02T01:05:02.025Z,4.15
2019-02-02T01:06:04.798Z,4.32
2019-02-02T01:07:02.009Z,4.25
2019-02-02T01:08:02.008Z,4.33
2019-02-02T01:09:02.001Z,4.39
2019-02-02T01:10:01.972Z,4.28
2019-02-02T01:11:01.972Z,4.37
2019-02-02T01:12:01.951Z,4.43
2019-02-02T01:13:01.945Z,4.36
2019-02-02T01:14:01.929Z,4.40
2019-02-02T01:15:01.925Z,4.54
2019-02-02T01:16:01.908Z,4.50
2019-02-02T01:17:01.895Z,4.50
2019-02-02T01:18:01.918Z,4.50
2019-02-02T01:19:01.889Z,4.34
2019-02-02T01:20:01.875Z,4.36
2019-02-02T01:21:01.881Z,4.25
2019-02-02T01:22:01.865Z,4.26
2019-02-02T01:23:01.845Z,4.36
2019-02-02T01:24:01.831Z,4.29
2019-02-02T01:25:01.815Z,4.21
2019-02-02T01:26:01.815Z,4.18
2019-02-02T01:27:01.795Z,4.08
2019-02-02T01:28:05.524Z,4.14
2019-02-02T01:29:01.777Z,4.10
2019-02-02T01:30:01.759Z,4.16
2019-02-02T01:31:01.776Z,4.08
2019-02-02T01:32:01.790Z,4.15
2019-02-02T01:33:09.417Z,4.00
2019-02-02T01:35:06.267Z,4.19
2019-02-02T01:36:06.218Z,4.16
2019-02-02T01:37:06.205Z,4.10
2019-02-02T01:38:06.211Z,4.04
2019-02-02T01:39:06.178Z,4.06
2019-02-02T01:40:06.159Z,4.03
2019-02-02T01:41:06.168Z,4.04
2019-02-02T01:42:06.137Z,4.01
2019-02-02T01:43:06.143Z,4.03
2019-02-02T01:44:06.111Z,4.18
2019-02-02T01:45:06.093Z,4.10
2019-02-02T01:46:06.093Z,4.15
2019-02-02T01:47:06.202Z,4.19
2019-02-02T01:48:06.068Z,4.22
2019-02-02T01:49:06.099Z,4.21
2019-02-02T01:50:06.040Z,4.22
2019-02-02T01:51:06.058Z,4.29
2019-02-02T01:52:06.020Z,4.25
2019-02-02T01:53:06.039Z,4.26
2019-02-02T01:54:06.022Z,4.22
2019-02-02T01:55:06.002Z,4.24
2019-02-02T01:56:05.978Z,4.29
2019-02-02T01:57:05.972Z,4.24
2019-02-02T01:58:15.941Z,4.28
2019-02-02T01:59:05.990Z,4.29
2019-02-02T02:00:06.006Z,4.29
2019-02-02T02:01:05.921Z,4.39
2019-02-02T02:02:05.917Z,4.40
2019-02-02T02:03:05.907Z,4.39
2019-02-02T02:04:05.908Z,4.28
2019-02-02T02:05:05.884Z,4.29
2019-02-02T02:06:05.901Z,4.22
2019-02-02T02:07:05.898Z,4.34
2019-02-02T02:08:05.851Z,4.39
2019-02-02T02:09:05.859Z,4.42
2019-02-02T02:10:05.836Z,4.44
2019-02-02T02:11:05.858Z,4.50
2019-02-02T02:12:05.853Z,4.44
2019-02-02T02:13:05.798Z,4.46
2019-02-02T02:14:05.784Z,4.46
2019-02-02T02:15:05.780Z,4.52
2019-02-02T02:16:05.810Z,4.47
2019-02-02T02:17:05.762Z,4.39
2019-02-02T02:18:05.741Z,4.32
2019-02-02T02:19:05.743Z,4.43
2019-02-02T02:20:05.733Z,4.39
2019-02-02T02:21:05.752Z,4.34
2019-02-02T02:22:05.722Z,4.40
2019-02-02T02:23:05.705Z,4.29
2019-02-02T02:24:05.673Z,4.24
2019-02-02T02:25:05.663Z,4.19
2019-02-02T02:26:05.687Z,4.12
2019-02-02T02:27:05.675Z,4.16
2019-02-02T02:28:05.664Z,4.12
2019-02-02T02:29:05.638Z,4.10
2019-02-02T02:30:05.612Z,4.10
2019-02-02T02:31:05.611Z,4.15
2019-02-02T02:32:05.643Z,4.18
2019-02-02T02:33:05.585Z,3.98
2019-02-02T02:34:05.601Z,4.06
2019-02-02T02:35:05.610Z,4.04
2019-02-02T02:36:05.556Z,3.90
2019-02-02T02:37:05.574Z,3.98
2019-02-02T02:38:05.548Z,3.85
2019-02-02T02:39:05.562Z,3.82
2019-02-02T02:40:05.535Z,3.83
2019-02-02T02:41:05.500Z,3.82
2019-02-02T02:42:05.487Z,3.82
2019-02-02T02:43:05.487Z,3.92
2019-02-02T02:44:05.487Z,3.90
2019-02-02T02:45:05.503Z,4.04
2019-02-02T02:46:05.538Z,4.01
2019-02-02T02:47:05.492Z,3.90
2019-02-02T02:48:05.448Z,3.89
2019-02-02T02:49:05.494Z,3.89
2019-02-02T02:50:05.459Z,4.03
2019-02-02T02:51:05.443Z,3.97
2019-02-02T02:52:05.413Z,3.98
2019-02-02T02:53:05.426Z,4.03
2019-02-02T02:54:05.359Z,3.92
2019-02-02T02:55:05.362Z,3.96
2019-02-02T02:56:05.376Z,3.88
2019-02-02T02:57:05.365Z,3.88
2019-02-02T02:58:05.346Z,3.78
2019-02-02T03:14:27.218Z,3.88
2019-02-02T03:15:27.196Z,3.89
2019-02-02T03:16:27.183Z,3.96
2019-02-02T03:17:27.154Z,3.89
2019-02-02T03:18:27.139Z,4.00
2019-02-02T03:19:27.111Z,4.03
2019-02-02T03:20:27.117Z,4.07
2019-02-02T03:21:27.077Z,4.00
2019-02-02T03:22:27.107Z,4.07
2019-02-02T03:23:27.057Z,4.15
2019-02-02T03:24:27.087Z,4.16
2019-02-02T03:25:27.055Z,4.18
2019-02-02T03:26:27.039Z,4.14
2019-02-02T03:27:27.007Z,4.15
2019-02-02T03:28:27.053Z,4.16
2019-02-02T03:29:26.986Z,4.18
2019-02-02T03:30:26.999Z,4.14
2019-02-02T03:31:26.991Z,4.16
2019-02-02T03:32:26.979Z,4.16
2019-02-02T03:33:26.997Z,4.16
2019-02-02T03:34:26.929Z,4.18
2019-02-02T03:35:26.930Z,4.15
2019-02-02T03:36:26.930Z,4.24
2019-02-02T03:37:26.926Z,4.14
2019-02-02T03:38:26.879Z,4.19
2019-02-02T03:39:26.868Z,4.14
2019-02-02T03:40:26.854Z,4.12
2019-02-02T03:41:26.869Z,4.15
2019-02-02T03:42:26.864Z,4.03
2019-02-02T03:43:26.845Z,4.06
2019-02-02T03:44:26.814Z,4.12
2019-02-02T03:45:26.808Z,4.19
2019-02-02T03:46:26.799Z,4.14
2019-02-02T03:47:26.803Z,4.14
2019-02-02T03:48:26.815Z,4.21
2019-02-02T03:49:26.781Z,4.21
2019-02-02T03:50:26.795Z,4.18
2019-02-02T03:51:26.736Z,4.19
2019-02-02T03:52:29.914Z,4.06
2019-02-02T03:53:26.753Z,3.86
2019-02-02T03:54:26.752Z,3.89
2019-02-02T03:55:26.703Z,3.82
2019-02-02T03:56:26.683Z,3.68
2019-02-02T03:57:26.708Z,3.71
2019-02-02T03:58:26.675Z,3.85
2019-02-02T03:59:26.685Z,3.75
2019-02-02T04:00:26.678Z,3.78
2019-02-02T04:01:29.865Z,3.75
2019-02-02T04:02:26.669Z,3.71
2019-02-02T04:03:26.615Z,3.68
2019-02-02T04:04:26.607Z,3.68
2019-02-02T04:05:26.622Z,3.83
2019-02-02T04:06:26.584Z,3.89
2019-02-02T04:07:26.612Z,3.94
2019-02-02T04:08:26.611Z,3.86
2019-02-02T04:09:26.543Z,3.89
2019-02-02T04:10:26.561Z,3.96
2019-02-02T04:11:26.567Z,3.92
2019-02-02T04:12:26.544Z,3.92
2019-02-02T04:13:26.533Z,3.97
2019-02-02T04:14:26.492Z,3.92
2019-02-02T04:15:26.477Z,3.98
2019-02-02T04:16:26.471Z,4.03
2019-02-02T04:17:26.502Z,4.08
2019-02-02T04:18:26.449Z,4.01
2019-02-02T04:19:35.103Z,4.15
2019-02-02T04:21:30.918Z,4.19
2019-02-02T04:22:30.908Z,4.10
2019-02-02T04:23:30.884Z,4.14
2019-02-02T04:24:30.875Z,4.07
2019-02-02T04:25:30.846Z,4.03
2019-02-02T04:26:30.854Z,4.04
2019-02-02T04:27:30.842Z,4.14
2019-02-02T04:28:30.844Z,4.06
2019-02-02T04:29:30.807Z,4.14
2019-02-02T04:30:30.800Z,4.14
2019-02-02T04:31:30.807Z,4.14
2019-02-02T04:32:30.802Z,4.18
2019-02-02T04:33:30.795Z,4.10
2019-02-02T04:34:30.784Z,4.15
2019-02-02T04:35:30.783Z,4.14
2019-02-02T04:36:30.746Z,4.22
2019-02-02T04:37:30.732Z,4.18
2019-02-02T04:38:30.733Z,4.14
2019-02-02T04:39:30.713Z,4.18
2019-02-02T04:40:30.746Z,4.21
2019-02-02T04:41:30.688Z,4.26
2019-02-02T04:42:30.679Z,4.28
2019-02-02T04:43:30.718Z,4.26
2019-02-02T04:44:30.700Z,4.15
2019-02-02T04:45:30.687Z,4.16
2019-02-02T04:46:30.624Z,4.22
2019-02-02T04:47:30.629Z,4.32
2019-02-02T04:48:32.486Z,4.28
2019-02-02T04:49:30.598Z,4.29
2019-02-02T04:50:30.604Z,4.37
2019-02-02T04:51:30.583Z,4.34
2019-02-02T04:52:30.558Z,4.42
2019-02-02T04:53:30.552Z,4.33
2019-02-02T04:54:30.550Z,4.26
2019-02-02T04:55:30.540Z,4.22
2019-02-02T04:56:30.541Z,4.28
2019-02-02T04:57:30.540Z,4.21
2019-02-02T04:58:30.502Z,4.33
2019-02-02T04:59:30.527Z,4.25
2019-02-02T05:00:30.482Z,4.28
2019-02-02T05:01:30.515Z,4.39
2019-02-02T05:02:30.602Z,4.42
2019-02-02T05:03:30.450Z,4.40
2019-02-02T05:04:30.464Z,4.44
2019-02-02T05:05:30.421Z,4.37
2019-02-02T05:06:30.451Z,4.40
2019-02-02T05:07:30.439Z,4.42
2019-02-02T05:08:30.431Z,4.52
2019-02-02T05:09:30.387Z,4.50
2019-02-02T05:10:30.426Z,4.46
2019-02-02T05:11:30.395Z,4.50
2019-02-02T05:12:30.397Z,4.50
2019-02-02T05:13:30.493Z,4.55
2019-02-02T05:14:30.365Z,4.58
2019-02-02T05:15:30.318Z,4.61
2019-02-02T05:16:30.400Z,4.54
2019-02-02T05:17:30.310Z,4.55
2019-02-02T05:18:30.299Z,4.62
2019-02-02T05:19:30.315Z,4.55
2019-02-02T05:20:30.273Z,4.50
2019-02-02T05:21:30.279Z,4.54
2019-02-02T05:22:30.293Z,4.52
2019-02-02T05:23:30.277Z,4.57
2019-02-02T05:24:30.226Z,4.52
2019-02-02T05:25:30.256Z,4.61
2019-02-02T05:26:30.248Z,4.57
2019-02-02T05:27:30.254Z,4.59
2019-02-02T05:28:30.198Z,4.57
2019-02-02T05:29:40.731Z,4.52
2019-02-02T05:30:30.183Z,4.55
2019-02-02T05:31:30.204Z,4.52
2019-02-02T05:32:30.164Z,4.61
2019-02-02T05:33:30.186Z,4.59
2019-02-02T05:34:30.192Z,4.52
2019-02-02T05:35:30.157Z,4.55
2019-02-02T05:36:30.121Z,4.62
2019-02-02T05:37:30.127Z,4.72
2019-02-02T05:38:30.085Z,4.69
2019-02-02T05:39:30.080Z,4.67
2019-02-02T05:40:30.066Z,4.76
2019-02-02T05:41:30.088Z,4.75
2019-02-02T05:42:30.045Z,4.77
2019-02-02T05:43:30.054Z,4.76
2019-02-02T05:44:30.064Z,4.75
2019-02-02T05:45:30.015Z,4.70
2019-02-02T05:46:30.013Z,4.88
2019-02-02T05:47:30.006Z,4.84
2019-02-02T05:48:30.024Z,4.76
2019-02-02T05:49:30.013Z,4.76
2019-02-02T05:50:29.989Z,4.75
2019-02-02T05:51:29.954Z,4.76
2019-02-02T05:52:29.941Z,4.83
2019-02-02T05:53:29.936Z,4.76
2019-02-02T05:54:29.945Z,4.72
2019-02-02T05:55:29.939Z,4.83
2019-02-02T05:56:29.938Z,4.84
2019-02-02T05:57:29.898Z,4.83
2019-02-02T05:58:29.886Z,4.80
2019-02-02T05:59:29.886Z,4.86
2019-02-02T06:00:29.866Z,4.79
2019-02-02T06:01:30.195Z,4.79
2019-02-02T06:02:29.873Z,4.86
2019-02-02T06:03:29.828Z,4.77
2019-02-02T06:04:29.836Z,4.80
2019-02-02T06:05:29.828Z,4.80
2019-02-02T06:06:29.821Z,4.79
2019-02-02T06:07:29.812Z,4.77
2019-02-02T06:08:29.774Z,4.89
2019-02-02T06:09:29.786Z,4.79
2019-02-02T06:10:29.773Z,4.70
2019-02-02T06:11:29.748Z,4.72
2019-02-02T06:12:29.745Z,4.70
2019-02-02T06:13:29.748Z,4.73
2019-02-02T06:14:29.732Z,4.75
2019-02-02T06:15:29.705Z,4.83
2019-02-02T06:16:29.713Z,4.86
2019-02-02T06:17:29.682Z,4.83
2019-02-02T06:18:29.680Z,4.84
2019-02-02T06:19:29.681Z,4.86
2019-02-02T06:20:29.682Z,4.79
2019-02-02T06:21:29.645Z,4.79
2019-02-02T06:22:29.631Z,4.86
2019-02-02T06:23:29.657Z,4.89
2019-02-02T06:24:29.646Z,4.95
2019-02-02T06:25:29.620Z,4.96
2019-02-02T06:26:29.628Z,4.91
2019-02-02T06:27:29.582Z,4.83
2019-02-02T06:28:29.572Z,4.79
2019-02-02T06:29:29.565Z,4.77
2019-02-02T06:30:29.557Z,4.83
2019-02-02T06:31:29.582Z,4.83
2019-02-02T06:32:29.539Z,4.83
2019-02-02T06:33:29.527Z,4.80
2019-02-02T06:34:29.528Z,4.83
2019-02-02T06:35:29.549Z,4.75
2019-02-02T06:36:29.514Z,4.73
2019-02-02T06:37:29.510Z,4.72
2019-02-02T06:38:29.507Z,4.69
2019-02-02T06:39:29.472Z,4.69
2019-02-02T06:40:29.596Z,4.73
2019-02-02T06:41:29.448Z,4.70
2019-02-02T06:42:29.463Z,4.67
2019-02-02T06:43:30.394Z,4.65
2019-02-02T06:44:29.447Z,4.62
2019-02-02T06:45:29.393Z,4.65
2019-02-02T06:46:29.398Z,4.65
2019-02-02T06:47:29.430Z,4.67
2019-02-02T06:48:29.387Z,4.72
2019-02-02T06:49:29.384Z,4.65
2019-02-02T06:50:29.383Z,4.69
2019-02-02T06:51:29.371Z,4.61
2019-02-02T06:52:29.320Z,4.67
2019-02-02T06:53:29.314Z,4.67
2019-02-02T06:54:33.395Z,4.64
2019-02-02T06:55:29.318Z,4.61
2019-02-02T06:56:29.279Z,4.52
2019-02-02T06:57:29.336Z,4.61
2019-02-02T06:58:29.315Z,4.69
2019-02-02T06:59:29.253Z,4.64
2019-02-02T07:00:29.267Z,4.70
2019-02-02T07:01:29.251Z,4.72
2019-02-02T07:02:29.216Z,4.67
2019-02-02T07:03:29.263Z,4.67
2019-02-02T07:04:29.195Z,4.75
2019-02-02T07:05:29.226Z,4.72
2019-02-02T07:06:29.202Z,4.64
2019-02-02T07:07:29.305Z,4.67
2019-02-02T07:08:29.203Z,4.73
2019-02-02T07:09:29.164Z,4.67
2019-02-02T07:10:29.135Z,4.67
2019-02-02T07:11:29.153Z,4.58
2019-02-02T07:12:29.278Z,4.64
2019-02-02T07:13:29.102Z,4.62
2019-02-02T07:14:29.097Z,4.57
2019-02-02T07:15:29.088Z,4.55
2019-02-02T07:16:29.073Z,4.57
2019-02-02T07:17:29.100Z,4.55
2019-02-02T07:18:29.080Z,4.61
2019-02-02T07:19:29.341Z,4.62
2019-02-02T07:20:29.080Z,4.62
2019-02-02T07:21:29.045Z,4.67
2019-02-02T07:22:29.041Z,4.57
2019-02-02T07:23:29.025Z,4.70
2019-02-02T07:24:29.013Z,4.73
2019-02-02T07:25:29.025Z,4.72
2019-02-02T07:26:29.053Z,4.61
2019-02-02T07:27:28.988Z,4.70
2019-02-02T07:28:28.948Z,4.59
2019-02-02T07:29:28.958Z,4.64
2019-02-02T07:30:29.775Z,4.58
2019-02-02T07:31:28.929Z,4.70
2019-02-02T07:32:28.913Z,4.69
2019-02-02T07:33:28.921Z,4.73
2019-02-02T07:34:28.910Z,4.77
2019-02-02T07:35:28.950Z,4.83
2019-02-02T07:36:28.911Z,4.76
2019-02-02T07:37:28.905Z,4.72
2019-02-02T07:38:28.863Z,4.73
2019-02-02T07:39:28.868Z,4.72
2019-02-02T07:40:28.845Z,4.86
2019-02-02T07:41:28.848Z,4.83
2019-02-02T07:42:28.845Z,4.79
2019-02-02T07:43:28.791Z,4.79
2019-02-02T07:44:28.781Z,4.75
2019-02-02T07:45:28.796Z,4.77
2019-02-02T07:46:28.763Z,4.77
2019-02-02T07:47:28.790Z,4.80
2019-02-02T07:48:28.774Z,4.72
2019-02-02T07:49:28.726Z,4.72
2019-02-02T07:50:28.746Z,4.69
2019-02-02T07:51:28.715Z,4.67
2019-02-02T07:52:28.714Z,4.75
2019-02-02T07:53:28.717Z,4.84
2019-02-02T07:54:28.780Z,4.79
2019-02-02T07:55:28.667Z,4.75
2019-02-02T07:56:28.677Z,4.80
2019-02-02T07:57:28.675Z,4.84
2019-02-02T07:58:28.673Z,4.84
2019-02-02T07:59:28.658Z,4.95
2019-02-02T08:00:39.658Z,4.96
2019-02-02T08:01:28.604Z,4.91
2019-02-02T08:02:28.604Z,4.80
2019-02-02T08:03:28.587Z,4.89
2019-02-02T08:04:28.587Z,4.88
2019-02-02T08:05:28.600Z,4.88
2019-02-02T08:06:28.569Z,4.96
2019-02-02T08:07:28.538Z,4.98
2019-02-02T08:08:28.536Z,4.96
2019-02-02T08:09:28.528Z,4.84
2019-02-02T08:10:28.510Z,4.94
2019-02-02T08:11:28.495Z,4.95
2019-02-02T08:12:28.530Z,4.94
2019-02-02T08:13:28.500Z,4.94
2019-02-02T08:14:28.477Z,4.95
2019-02-02T08:15:28.462Z,4.94
2019-02-02T08:16:28.443Z,4.94
2019-02-02T08:17:28.469Z,4.98
2019-02-02T08:18:28.452Z,5.02
2019-02-02T08:19:28.419Z,4.98
2019-02-02T08:20:28.426Z,5.05
2019-02-02T08:21:28.399Z,5.02
2019-02-02T08:22:28.389Z,5.04
2019-02-02T08:23:28.394Z,4.92
2019-02-02T08:24:28.369Z,5.10
2019-02-02T08:25:28.395Z,4.99
2019-02-02T08:26:28.349Z,4.95
2019-02-02T08:27:28.338Z,4.95
2019-02-02T08:28:28.321Z,5.12
2019-02-02T08:29:28.336Z,4.96
2019-02-02T08:30:28.345Z,5.05
2019-02-02T08:31:28.292Z,5.12
2019-02-02T08:32:28.287Z,5.02
2019-02-02T08:33:28.273Z,5.04
2019-02-02T08:34:28.270Z,5.10
2019-02-02T08:35:28.269Z,4.99
2019-02-02T08:36:28.318Z,5.01
2019-02-02T08:37:28.237Z,4.99
2019-02-02T08:38:28.308Z,5.02
2019-02-02T08:39:29.524Z,5.09
2019-02-02T08:40:28.213Z,5.05
2019-02-02T08:41:28.207Z,4.99
2019-02-02T08:42:28.189Z,5.04
2019-02-02T08:43:28.173Z,5.16
2019-02-02T08:44:29.590Z,5.12
2019-02-02T08:45:28.164Z,5.17
2019-02-02T08:46:28.158Z,5.10
2019-02-02T08:47:28.146Z,5.17
2019-02-02T08:48:28.176Z,5.22
2019-02-02T08:49:28.152Z,5.31
2019-02-02T08:50:28.147Z,5.17
2019-02-02T08:51:28.105Z,5.25
2019-02-02T08:52:28.118Z,5.27
2019-02-02T08:55:02.606Z,5.31
2019-02-02T08:56:03.570Z,5.30
2019-02-02T08:57:03.923Z,5.31
2019-02-02T08:58:04.597Z,5.34
2019-02-02T08:59:03.536Z,5.28
2019-02-02T09:00:03.520Z,5.32
2019-02-02T09:01:04.427Z,5.38
2019-02-02T09:02:02.950Z,5.35
2019-02-02T09:03:02.593Z,5.34
2019-02-02T09:04:02.528Z,5.35
2019-02-02T09:05:02.568Z,5.45
2019-02-02T09:06:02.528Z,5.31
2019-02-02T09:07:02.470Z,5.40
2019-02-02T09:08:02.438Z,5.35
2019-02-02T09:09:02.453Z,5.35
2019-02-02T09:10:02.396Z,5.46
2019-02-02T09:11:02.420Z,5.48
2019-02-02T09:12:02.384Z,5.41
2019-02-02T09:13:02.365Z,5.43
2019-02-02T09:14:02.369Z,5.48
2019-02-02T09:15:02.350Z,5.49
2019-02-02T09:16:02.596Z,5.50
2019-02-02T09:17:02.803Z,5.56
2019-02-02T09:18:02.548Z,5.56
2019-02-02T09:19:02.692Z,5.64
2019-02-02T09:20:02.678Z,5.67
2019-02-02T09:21:02.655Z,5.63
2019-02-02T09:22:02.858Z,5.67
2019-02-02T09:23:06.435Z,5.67
2019-02-02T09:24:02.563Z,5.82
2019-02-02T09:26:02.393Z,5.85
2019-02-02T09:27:02.380Z,5.82
2019-02-02T09:28:02.861Z,5.85
2019-02-02T09:29:02.267Z,5.86
2019-02-02T09:30:02.266Z,5.91
2019-02-02T09:31:02.208Z,5.88
2019-02-02T09:32:02.204Z,5.85
2019-02-02T09:33:02.263Z,5.95
2019-02-02T09:34:02.183Z,5.92
2019-02-02T09:35:02.199Z,5.91
2019-02-02T09:36:02.140Z,6.01
2019-02-02T09:37:02.179Z,5.96
2019-02-02T09:38:02.173Z,6.03
2019-02-02T09:39:02.157Z,5.93
2019-02-02T09:40:02.141Z,6.04
2019-02-02T09:41:02.150Z,5.95
2019-02-02T09:42:02.102Z,6.03
2019-02-02T09:43:02.074Z,6.07
2019-02-02T09:44:02.097Z,6.03
2019-02-02T09:45:02.064Z,6.10
2019-02-02T09:46:04.682Z,6.09
2019-02-02T09:47:02.040Z,6.11
2019-02-02T09:48:02.029Z,6.11
2019-02-02T09:49:02.039Z,6.19
2019-02-02T09:50:02.012Z,6.13
2019-02-02T09:51:02.015Z,6.09
2019-02-02T09:52:02.034Z,6.09
2019-02-02T09:53:01.999Z,6.01
2019-02-02T09:54:02.135Z,6.21
2019-02-02T09:55:01.959Z,6.18
2019-02-02T09:56:01.996Z,6.33
2019-02-02T09:57:01.954Z,6.33
2019-02-02T09:58:02.005Z,6.30
2019-02-02T09:59:01.925Z,6.36
2019-02-02T10:00:01.943Z,6.41
2019-02-02T10:01:01.934Z,6.38
2019-02-02T10:02:01.913Z,6.44
2019-02-02T10:03:01.907Z,6.35
2019-02-02T10:04:01.913Z,6.51
2019-02-02T10:05:01.887Z,6.68
2019-02-02T10:06:01.926Z,6.68
2019-02-02T10:07:01.873Z,6.62
2019-02-02T10:08:01.862Z,6.53
2019-02-02T10:09:01.918Z,6.51
2019-02-02T10:10:02.043Z,6.66
2019-02-02T10:11:01.842Z,6.46
2019-02-02T10:12:01.824Z,6.53
2019-02-02T10:13:02.013Z,6.43
2019-02-02T10:14:01.837Z,6.56
2019-02-02T10:15:01.796Z,6.51
2019-02-02T10:16:01.816Z,6.51
2019-02-02T10:17:01.804Z,6.47
2019-02-02T10:18:01.757Z,6.36
2019-02-02T10:19:01.730Z,6.47
2019-02-02T10:20:01.823Z,6.33
2019-02-02T10:21:04.212Z,6.43
2019-02-02T10:22:01.750Z,6.47
2019-02-02T10:23:01.823Z,6.36
2019-02-02T10:24:01.714Z,6.46
2019-02-02T10:25:01.680Z,6.51
2019-02-02T10:26:01.680Z,6.43
2019-02-02T10:27:01.682Z,6.47
2019-02-02T10:28:01.675Z,6.48
2019-02-02T10:29:01.644Z,6.46
2019-02-02T10:30:01.662Z,6.46
2019-02-02T10:31:01.669Z,6.36
2019-02-02T10:32:01.650Z,6.38
2019-02-02T10:33:01.622Z,6.44
2019-02-02T10:34:01.654Z,6.44
2019-02-02T10:35:01.628Z,6.46
2019-02-02T10:36:01.603Z,6.35
2019-02-02T10:37:01.603Z,6.41
2019-02-02T10:38:01.590Z,6.40
2019-02-02T10:39:03.031Z,6.40
2019-02-02T10:40:01.582Z,6.48
2019-02-02T10:41:01.609Z,6.48
2019-02-02T10:42:01.534Z,6.44
2019-02-02T10:43:01.519Z,6.40
2019-02-02T10:44:01.544Z,6.50
2019-02-02T10:45:01.524Z,6.53
2019-02-02T10:46:01.507Z,6.53
2019-02-02T10:47:01.472Z,6.54
2019-02-02T10:48:01.483Z,6.46
2019-02-02T10:49:01.465Z,6.50
2019-02-02T10:50:01.476Z,6.56
2019-02-02T10:51:01.433Z,6.50
2019-02-02T10:52:01.455Z,6.53
2019-02-02T10:53:10.485Z,6.54
2019-02-02T10:55:07.058Z,6.48
2019-02-02T10:56:06.942Z,6.54
2019-02-02T10:57:07.068Z,6.53
2019-02-02T10:58:07.106Z,6.59
2019-02-02T10:59:06.921Z,6.61
2019-02-02T11:00:06.881Z,6.56
2019-02-02T11:01:06.840Z,6.63
2019-02-02T11:02:08.162Z,6.69
2019-02-02T11:03:06.838Z,6.69
2019-02-02T11:04:06.954Z,6.65
2019-02-02T11:05:06.836Z,6.61
2019-02-02T11:06:06.812Z,6.66
2019-02-02T11:07:06.815Z,6.63
2019-02-02T11:08:15.872Z,6.69
2019-02-02T11:10:11.333Z,6.72
2019-02-02T11:11:11.238Z,6.69
2019-02-02T11:12:11.271Z,6.68
2019-02-02T11:13:11.244Z,6.71
2019-02-02T11:14:11.499Z,6.68
2019-02-02T11:15:11.223Z,6.66
2019-02-02T11:16:11.337Z,6.86
2019-02-02T11:17:11.213Z,6.81
2019-02-02T11:18:11.202Z,6.83
2019-02-02T11:19:11.279Z,6.83
2019-02-02T11:20:11.197Z,6.90
2019-02-02T11:21:11.144Z,6.91
2019-02-02T11:22:11.173Z,6.91
2019-02-02T11:23:11.183Z,7.02
2019-02-02T11:24:11.173Z,6.94
2019-02-02T11:25:11.177Z,6.97
2019-02-02T11:26:11.143Z,6.95
2019-02-02T11:27:12.688Z,6.99
2019-02-02T11:28:11.133Z,7.09
2019-02-02T11:29:11.192Z,7.08
2019-02-02T11:30:11.063Z,7.15
2019-02-02T11:31:11.082Z,7.04
2019-02-02T11:32:11.100Z,7.09
2019-02-02T11:33:11.072Z,7.15
2019-02-02T11:34:11.029Z,7.22
2019-02-02T11:35:11.008Z,7.19
2019-02-02T11:36:11.040Z,7.22
2019-02-02T11:37:10.995Z,7.19
2019-02-02T11:38:11.022Z,7.31
2019-02-02T11:39:10.985Z,7.29
2019-02-02T11:40:11.000Z,7.26
2019-02-02T11:41:10.990Z,7.41
2019-02-02T11:42:10.963Z,7.38
2019-02-02T11:43:10.986Z,7.38
2019-02-02T11:44:10.960Z,7.38
2019-02-02T11:45:10.931Z,7.27
2019-02-02T11:46:10.920Z,7.34
2019-02-02T11:47:10.903Z,7.32
2019-02-02T11:48:10.907Z,7.31
2019-02-02T11:49:11.035Z,7.24
2019-02-02T11:50:10.904Z,7.24
2019-02-02T11:51:10.893Z,7.26
2019-02-02T11:52:10.882Z,7.35
2019-02-02T11:53:10.878Z,7.31
2019-02-02T11:54:10.856Z,7.37
2019-02-02T11:55:10.843Z,7.34
2019-02-02T11:56:10.844Z,7.38
2019-02-02T11:57:10.822Z,7.32
2019-02-02T11:58:10.819Z,7.37
2019-02-02T11:59:10.840Z,7.38
2019-02-02T12:00:10.795Z,7.44
2019-02-02T12:01:10.815Z,7.37
2019-02-02T12:02:14.442Z,7.38
2019-02-02T12:03:10.787Z,7.35
2019-02-02T12:04:10.768Z,7.38
2019-02-02T12:05:10.890Z,7.45
2019-02-02T12:06:10.758Z,7.45
2019-02-02T12:07:10.757Z,7.49
2019-02-02T12:08:10.724Z,7.47
2019-02-02T12:09:10.766Z,7.44
2019-02-02T12:10:10.749Z,7.53
2019-02-02T12:11:10.715Z,7.59
2019-02-02T12:12:10.696Z,7.59
2019-02-02T12:13:10.743Z,7.50
2019-02-02T12:14:10.669Z,7.52
2019-02-02T12:15:10.662Z,7.45
2019-02-02T12:16:10.658Z,7.47
2019-02-02T12:17:10.681Z,7.59
2019-02-02T12:18:11.986Z,7.59
2019-02-02T12:19:10.645Z,7.60
2019-02-02T12:20:11.172Z,7.69
2019-02-02T12:21:10.644Z,7.67
2019-02-02T12:22:10.624Z,7.69
2019-02-02T12:23:10.603Z,7.75
2019-02-02T12:24:15.875Z,7.78
2019-02-02T12:25:10.623Z,7.84
2019-02-02T12:26:10.578Z,7.82
2019-02-02T12:27:10.635Z,7.85
2019-02-02T12:28:10.598Z,7.85
2019-02-02T12:29:10.570Z,7.81
2019-02-02T12:30:10.553Z,7.81
2019-02-02T12:31:11.045Z,7.82
2019-02-02T12:32:10.570Z,7.94
2019-02-02T12:33:10.523Z,7.99
2019-02-02T12:34:10.514Z,7.84
2019-02-02T12:35:10.513Z,7.87
2019-02-02T12:47:59.621Z,7.97
2019-02-02T12:48:59.227Z,8.00
2019-02-02T12:49:59.067Z,7.96
2019-02-02T12:50:59.039Z,8.03
2019-02-02T12:51:59.034Z,7.99
2019-02-02T12:52:59.028Z,7.89
2019-02-02T12:53:59.048Z,7.87
2019-02-02T12:54:59.049Z,7.94
2019-02-02T12:55:59.048Z,8.03
2019-02-02T12:56:59.031Z,8.02
2019-02-02T12:57:58.981Z,7.94
2019-02-02T12:58:58.987Z,8.00
2019-02-02T12:59:58.987Z,8.00
2019-02-02T13:00:58.950Z,7.99
2019-02-02T13:01:58.943Z,8.02
2019-02-02T13:02:58.965Z,8.02
2019-02-02T13:04:07.765Z,8.00
2019-02-02T13:06:03.518Z,8.02
2019-02-02T13:07:03.444Z,8.07
2019-02-02T13:08:05.380Z,8.07
2019-02-02T13:09:03.458Z,8.02
2019-02-02T13:10:03.404Z,8.02
2019-02-02T13:11:03.416Z,7.94
2019-02-02T13:12:03.489Z,8.07
2019-02-02T13:13:03.394Z,8.03
2019-02-02T13:14:03.373Z,8.03
2019-02-02T13:15:03.368Z,7.99
2019-02-02T13:16:03.354Z,7.92
2019-02-02T13:17:03.383Z,8.00
2019-02-02T13:18:03.345Z,8.11
2019-02-02T13:19:03.355Z,8.15
2019-02-02T13:20:03.349Z,8.25
2019-02-02T13:21:03.352Z,8.22
2019-02-02T13:22:03.370Z,8.15
2019-02-02T13:23:03.297Z,8.02
2019-02-02T13:24:03.290Z,7.96
2019-02-02T13:25:03.327Z,7.97
2019-02-02T13:26:05.622Z,8.03
2019-02-02T13:27:03.277Z,8.02
2019-02-02T13:28:03.351Z,8.02
2019-02-02T13:29:03.303Z,7.96
2019-02-02T13:30:03.285Z,7.84
2019-02-02T13:31:11.899Z,7.92
2019-02-02T13:33:07.762Z,7.84
2019-02-02T13:34:07.696Z,7.84
2019-02-02T13:35:07.730Z,7.87
2019-02-02T13:36:07.680Z,7.82
2019-02-02T13:37:07.689Z,7.84
2019-02-02T13:38:07.664Z,7.90
2019-02-02T13:39:07.659Z,8.04
2019-02-02T13:40:07.656Z,8.07
2019-02-02T13:41:07.685Z,7.97
2019-02-02T13:42:07.645Z,7.97
2019-02-02T13:43:07.679Z,8.03
2019-02-02T13:44:07.652Z,7.97
2019-02-02T13:45:07.611Z,7.96
2019-02-02T13:46:07.751Z,8.00
2019-02-02T13:47:07.595Z,7.94
2019-02-02T13:48:07.618Z,7.99
2019-02-02T13:49:07.611Z,7.99
2019-02-02T13:50:07.674Z,7.93
2019-02-02T13:51:07.604Z,7.97
2019-02-02T13:52:07.574Z,7.93
2019-02-02T13:53:07.571Z,8.00
2019-02-02T13:54:07.589Z,7.89